High School Elite Boys

                 2010 SPARTAN INVITATIONAL CROSS COUNTRY
                        FRIDAY, SEPTEMBER 17, 2010
----------------------------------------------------------------------------
                        BOY'S TEAM RESULTS -  ELITE
----------------------------------------------------------------------------


  1.   144  DEXTER                                      (  16:37  1:23:04)
==========================================================
  1     15   1172 Taylor Neely         11   16:24
  2     16   1180 Alexey Vermeulen     10   16:25
  3     27   1168 Parker Latshaw       12   16:34
  4     38   1162 Tim Bougher          11   16:46
  5     48   1166 Matt Greve           10   16:55
  6   ( 70)  1164 Zack Dutcher         11   17:11
  7   (103)  1179 Zach Tidwell         9    17:33

  2.   149  PINCKNEY                                    (  16:38  1:23:10)
==========================================================
  1     13   1734 Zac Meston           12   16:23
  2     18   1726 Eric Fegan           11   16:26
  3     31   1722 Michael Cox          11   16:40
  4     41   1731 Cal Magier           12   16:48
  5     46   1732 Jake Magier          12   16:53
  6   ( 53)  1721 Connor Couch         11   16:58
  7   (143)  1737 Brad Petty           12   18:09

  3.   179  SALINE                                      (  16:42  1:23:28)
==========================================================
  1     10   1906 Nicholas Renberg     11   16:19
  2     12   1894 Andrew Barnett       12   16:20
  3     32   1895 Spencer Bishop       11   16:43
  4     37   1904 Jonathan Parker      11   16:46
  5     88   1905 Grant Praschan       10   17:20
  6   (101)  1900 Matthew Elms         10   17:32
  7   (116)  1898 David Dolsen         12   17:45

  4.   188  HIGHLAND MILFORD                            (  16:44  1:23:40)
==========================================================
  1     11   1455 Evan Smallman        12   16:20
  2     23   1452 Dylan Danowski       12   16:30
  3     42   1456 Cody Snavely         10   16:49
  4     54   1451 Paul Ausum           11   16:58
  5     58   1454 Shawn Shove          12   17:03
  6   ( 59)  1453 Ryan Hofsess         12   17:03
  7   (172)  1457 Shawn Welch          11   19:11

  5.   217  SAGINAW HERITAGE                            (  16:51  1:24:12)
==========================================================
  1     20   1849 Tom Acosta           11   16:28
  2     34   1858 Nate Cruz            10   16:44
  3     49   1870 Matt Kennedy         12   16:55
  4     50   1873 Bobby Leddy          11   16:56
  5     64   1860 Mitchell Ellsworth   11   17:09
  6   ( 89)  1879 Brandon Scharich     10   17:21
  7   (114)  1867 David Jensen         11   17:44

  6.   235  TEMPERANCE BEDFORD                          (  16:46  1:23:48)
==========================================================
  1      4   1986 Nick Kaiser          12   16:01
  2      7   1999 Dan Thompson         12   16:11
  3     71   1991 Jacob Nye            11   17:11
  4     74   1984 Adam Horace          11   17:11
  5     79   2001 Troy Tidwell         12   17:14
  6   ( 80)  1994 Cory Schoendorf      12   17:15
  7   ( 81)  1989 James Nelson         10   17:15

  7.   265  MASON                                       (  16:54  1:24:28)
==========================================================
  1      9   1573 Tanner Hinkle        10   16:17
  2     14   1581 Alex Whitmer         10   16:23
  3     43   1580 Mason Vandyke        9    16:49
  4     91   1571 Jacob Hansen         9    17:22
  5    108   1567 Joe Cecil            11   17:37
  6   (157)  1575 Josh Horton          11   18:33
  7   (173)  1579 Chris Thorton        9    19:12

  8.   279  STONEY CREEK                                (  16:57  1:24:44)
==========================================================
  1      6   1941 Brandon Townsend     10   16:09
  2     36   1938 Eli Nasr             11   16:45
  3     45   1943 Chris Tsivitse       10   16:51
  4     65   1942 Austin Trethewey     12   17:09
  5    127   1937 Dan Moore            12   17:50
  6   (152)  1940 Matt Rolain          11   18:26
  7   (168)  1939 Mike Reckling        12   18:59

  9.   300  GRAND HAVEN                                 (  16:57  1:24:42)
==========================================================
  1      5   1294 Joe Duff             12   16:04
  2     19   1295 Ryan Duff            11   16:27
  3     85   1307 Adam Winebarger      12   17:18
  4     86   1306 Schalk Vanniekirk    Ni   17:19
  5    105   1303 Will Swain           11   17:34
  6   (124)  1304 Dylan Tarr           11   17:49
  7   (136)  1299 Justin Pippel        10   18:01

 10.   316  GRAND RAPIDS CHRISTIAN                      (  17:04  1:25:20)
==========================================================
  1     35   1358 Jacob Kuyvenhoven    12   16:45
  2     47   1361 Mike Vandenheuvel    12   16:54
  3     62   1362 Eric Veldkamp        11   17:04
  4     82   1359 Grant Ludema         12   17:15
  5     90   1360 Andre Otte           11   17:22
  6   (111)  1356 Andrew Jo            12   17:41
  7   (126)  1357 Seth Koetje          12   17:50

 11.   318  WATERFORD MOTT                              (  17:01  1:25:01)
==========================================================
  1      3   2118 Scott Albaugh        12   15:56
  2     26   2125 Ian Hackbarth        12   16:33
  3     28   2121 Nathan Burnand       10   16:35
  4    115   2122 Matt Degraeves       11   17:44
  5    146   2123 Dane Falberg         -    18:13

 12.   320  HARTLAND                                    (  17:04  1:25:16)
==========================================================
  1      8   1433 Ian McGinn           11   16:14
  2     39   1427 Alex Gietek          11   16:47
  3     57   1424 Jareb Duggan         9    17:03
  4     84   1425 Brendan Gavitt       11   17:18
  5    132   1438 Sean Pengelly        10   17:54
  6   (135)  1439 Tige Pennala         10   18:00
  7   (145)  1426 Pat Gavitt           9    18:11

 13.   335  GRAND RAPIDS FOREST HILLS NORTHERN          (  17:06  1:25:29)
==========================================================
  1     21   1393 Jacob Towne          11   16:28
  2     24   1394 William Trice        11   16:31
  3     66   1384 Ben Lafave           11   17:09
  4    102   1372 Nate Dwarshuis       12   17:33
  5    122   1367 Grant Cook           11   17:48
  6   (128)  1396 Jack Weykamp         10   17:50
  7   (144)  1366 Joe Consolla         10   18:11

 14.   342  MATTAWAN                                    (  17:00  1:24:57)
==========================================================
  1      2   1629 Alex Standiford      12   15:42
  2     25   1619 Thomas Meeker        11   16:33
  3     92   1607 Aaron Bell           11   17:22
  4    104   1624 Benny Richardson     9    17:33
  5    119   1616 Joey Lautrup         12   17:47
  6   (162)  1617 Drew Lemons          11   18:43
  7   (169)  1621 Eric Orlando         9    18:59

 15.   348  MIDLAND H H DOW                             (  17:09  1:25:42)
==========================================================
  1     30   1678 Ben Zank             12   16:39
  2     44   1666 Kodi Kollmeyer       12   16:51
  3     76   1674 Daniel Tzou          11   17:12
  4     78   1664 Clayton Gould        10   17:13
  5    120   1676 Zach Wells           10   17:47
  6   (141)  1661 Philip Carney        12   18:08
  7   (148)  1668 Sam Owens            11   18:17

 16.   367  ROCKFORD                                    (  17:13  1:26:02)
==========================================================
  1     33   1828 Steven Ek            12   16:43
  2     56   1829 Spencer Gerber       12   17:01
  3     60   1833 Drew Woznick         10   17:03
  4    106   1827 Chris Coles          10   17:34
  5    112   1832 Eric Parsell         12   17:41
  6   (129)  1831 Devon Liu            12   17:51
  7   (139)  1830 Mike Greko           12   18:06

 17.   376  PORTAGE CENTRAL                             (  17:14  1:26:07)
==========================================================
  1     29   1767 Zach Warner          12   16:38
  2     55   1766 Alex Waldvogel       12   17:00
  3     68   1755 Matt King            12   17:10
  4    107   1753 Ben Greaves          10   17:34
  5    117   1762 John Rose            12   17:45
  6   (140)  1771 Brandon Yonke        12   18:07
  7   (158)  1765 Zach Stoner          10   18:34

 18.   395  ROCHESTER ADAMS                             (  17:16  1:26:16)
==========================================================
  1     17   1804 Steve Biebelhausen   10   16:25
  2     61   1809 Dylan Oppenheiser    11   17:04
  3     83   1813 Theo Thompson        12   17:16
  4    113   1807 Quinton Mack         9    17:43
  5    121   1806 Jon Kassab           12   17:48
  6   (130)  1808 Cameron McBride      12   17:52
  7   (137)  1810 Alex Potoniec        10   18:02

 19.   428  AUBURN BAY CITY WESTERN                     (  17:19  1:26:34)
==========================================================
  1     69   1050 Tyler Durussel       11   17:10
  2     72   1060 Spencer Kokaly       12   17:11
  3     94   1063 Drew Meylan          12   17:23
  4     95   1067 Nathan Vorwerck      10   17:23
  5     98   1057 Ryan Haag            12   17:27
  6   (109)  1043 Jeffrey Amthor       12   17:38
  7   (131)  1054 David Gould          12   17:53

 20.   454  LANSING CATHOLIC                            (  17:27  1:27:11)
==========================================================
  1     51   1490 Jimmy Hicks          11   16:58
  2     67   1506 Zachary Zingsheim    11   17:09
  3     73   1505 Austin Winter        11   17:11
  4    125   1495 Joe Marrah           11   17:49
  5    138   1503 Nate Warriner        10   18:04
  6   (155)  1494 Spencer Lebel        9    18:32
  7   (161)  1493 Mitchell Lebel       12   18:39

 21.   512  SHEPHERD                                    (  17:36  1:27:57)
==========================================================
  1      1   1922 Caleb Rhynard        12   15:30
  2     77   1915 Kurtis Hall          11   17:13
  3    118   1918 Adam Kyser           12   17:47
  4    142   1908 Sam Cole             12   18:09
  5    174   1926 Marcus Sura          11   19:18
  6   (179)  1917 Josh Hutchinson      10   20:09

 22.   526  ROMEO                                       (  17:40  1:28:17)
==========================================================
  1     63   1841 Joe Gerow            11   17:08
  2     93   1845 Doug O'Hair          12   17:22
  3     97   1847 Trevor Sharnas       10   17:24
  4    110   1846 Jason Saliga         10   17:38
  5    163   1842 Jonathon Haning      10   18:45
  6   (170)  1843 Kyle Haning          12   18:59
  7   (176)  1844 Andrew Nelson        10   19:24

 23.   541  TRAVERSE CITY CENTRAL                       (  17:39  1:28:14)
==========================================================
  1     75   2037 Matt Moss            11   17:12
  2     87   2042 Josh Rose            10   17:20
  3     99   2049 Adam Waggoner        11   17:30
  4    133   2021 Joe Friedli          11   17:56
  5    147   2024 Max Johnson          11   18:16
  6   (150)  2017 Drew Dancer          12   18:23
  7   (164)  2016 Evan Cover           12   18:49

 24.   595  GRAND LEDGE                                 (  17:56  1:29:40)
==========================================================
  1     40   1344 Chase Skinner        12   16:47
  2    100   1346 Josh Vaillancourt    12   17:31
  3    134   1340 Austin Rios          10   17:57
  4    156   1347 Dylan Wedley         12   18:32
  5    165   1330 Tyler Bannhard       10   18:53
  6   (166)  1331 Curtis Brownell      11   18:57
  7   (167)  1334 Bryan Jones          10   18:58

 25.   635  TROY                                        (  18:04  1:30:20)
==========================================================
  1     22   4128 William Yau          11   16:28
  2    149   4129 Jeremy Hepner        12   18:20
  3    151   4131 Danny O'Donovan      11   18:26
  4    154   4132 Chris Hoef           12   18:31
  5    159   4134 Alex Golinski        11   18:35
  6   (171)  4133 Alex Miron           11   19:02
  7   (177)  4130 Adam Cowherd         12   19:26

 26.   732  FAIR HAVEN ANCHOR BAY                       (  19:32  1:37:36)
==========================================================
  1     52   1251 Eddie Komph          11   16:58
  2    153   1252 Jordan Miller        12   18:27
  3    160   1250 Scott Knybel         11   18:35
  4    183   1253 Shane Sopel          10   21:38
  5    184   1248 Sean Chilcott        11   21:58
  6   (185)  1249 Brandon Edwards      10   22:04

 27.   752  GOODRICH                                    (  18:56  1:34:39)
==========================================================
  1     96   1275 Ben Ruff             11   17:23
  2    123   1273 Fiodor Kessler       11   17:49
  3    175   1272 Nathan Hagerman      10   19:19
  4    178   1274 Pat Patterson        11   19:26
  5    180   2515 Zach Laymak          11   20:42
  6   (181)  1277 Jack Zito            12   20:49
  7   (182)  1271 Jordan Donnelly      12   20:58


                 2010 SPARTAN INVITATIONAL CROSS COUNTRY
                        FRIDAY, SEPTEMBER 17, 2010
----------------------------------------------------------------------------
                     BOY'S INDIVIDUAL RESULTS - ELITE
----------------------------------------------------------------------------

Boys 5000 Meter Run

Place TmPl No.   Name                  School                         Time  Pace  
===== ==== ===== ===================== ============================== ===== ===== 
    1    1  1922 Caleb Rhynard         SHEPHERD                       15:30  5:00 
    2    2  1629 Alex Standiford       MATTAWAN                       15:42  5:04 
    3    3  2118 Scott Albaugh         WATERFORD MOTT                 15:56  5:08 
    4       1070 Kyle Tait             BIG RAPIDS CROSSROADS ACADEMY  15:59  5:09 
    5    4  1986 Nick Kaiser           TEMPERANCE BEDFORD             16:01  5:10 
    6    5  1294 Joe Duff              GRAND HAVEN                    16:04  5:11 
    7    6  1941 Brandon Townsend      STONEY CREEK                   16:09  5:12 
    8       1128 Spencer Nousain       CONCORD                        16:10  5:13 
    9    7  1999 Dan Thompson          TEMPERANCE BEDFORD             16:11  5:13 
   10    8  1433 Ian McGinn            HARTLAND                       16:14  5:14 
   11    9  1573 Tanner Hinkle         MASON                          16:17  5:15 
   12   10  1906 Nicholas Renberg      SALINE                         16:19  5:16 
   13   11  1455 Evan Smallman         HIGHLAND MILFORD               16:20  5:16 
   14   12  1894 Andrew Barnett        SALINE                         16:20  5:16 
   15   13  1734 Zac Meston            PINCKNEY                       16:23  5:17 
   16   14  1581 Alex Whitmer          MASON                          16:23  5:17 
   17   15  1172 Taylor Neely          DEXTER                         16:24  5:17 
   18   16  1180 Alexey Vermeulen      DEXTER                         16:25  5:17 
   19   17  1804 Steve Biebelhausen    ROCHESTER ADAMS                16:25  5:18 
   20   18  1726 Eric Fegan            PINCKNEY                       16:26  5:18 
   21   19  1295 Ryan Duff             GRAND HAVEN                    16:27  5:18 
   22   20  1849 Tom Acosta            SAGINAW HERITAGE               16:28  5:18 
   23   21  1393 Jacob Towne           GRAND RAPIDS FOREST HILLS NORT 16:28  5:18 
   24   22  4128 William Yau           TROY                           16:28  5:18 
   25   23  1452 Dylan Danowski        HIGHLAND MILFORD               16:30  5:19 
   26   24  1394 William Trice         GRAND RAPIDS FOREST HILLS NORT 16:31  5:19 
   27   25  1619 Thomas Meeker         MATTAWAN                       16:33  5:20 
   28   26  2125 Ian Hackbarth         WATERFORD MOTT                 16:33  5:20 
   29   27  1168 Parker Latshaw        DEXTER                         16:34  5:20 
   30   28  2121 Nathan Burnand        WATERFORD MOTT                 16:35  5:21 
   31   29  1767 Zach Warner           PORTAGE CENTRAL                16:38  5:22 
   32   30  1678 Ben Zank              MIDLAND H H DOW                16:39  5:22 
   33   31  1722 Michael Cox           PINCKNEY                       16:40  5:22 
   34   32  1895 Spencer Bishop        SALINE                         16:43  5:23 
   35   33  1828 Steven Ek             ROCKFORD                       16:43  5:23 
   36   34  1858 Nate Cruz             SAGINAW HERITAGE               16:44  5:24 
   37   35  1358 Jacob Kuyvenhoven     GRAND RAPIDS CHRISTIAN         16:45  5:24 
   38   36  1938 Eli Nasr              STONEY CREEK                   16:45  5:24 
   39   37  1904 Jonathan Parker       SALINE                         16:46  5:24 
   40   38  1162 Tim Bougher           DEXTER                         16:46  5:24 
   41   39  1427 Alex Gietek           HARTLAND                       16:47  5:24 
   42   40  1344 Chase Skinner         GRAND LEDGE                    16:47  5:25 
   43   41  1731 Cal Magier            PINCKNEY                       16:48  5:25 
   44   42  1456 Cody Snavely          HIGHLAND MILFORD               16:49  5:25 
   45   43  1580 Mason Vandyke         MASON                          16:49  5:25 
   46   44  1666 Kodi Kollmeyer        MIDLAND H H DOW                16:51  5:26 
   47   45  1943 Chris Tsivitse        STONEY CREEK                   16:51  5:26 
   48   46  1732 Jake Magier           PINCKNEY                       16:53  5:27 
   49   47  1361 Mike Vandenheuvel     GRAND RAPIDS CHRISTIAN         16:54  5:27 
   50   48  1166 Matt Greve            DEXTER                         16:55  5:27 
   51   49  1870 Matt Kennedy          SAGINAW HERITAGE               16:55  5:27 
   52   50  1873 Bobby Leddy           SAGINAW HERITAGE               16:56  5:28 
   53   51  1490 Jimmy Hicks           LANSING CATHOLIC               16:58  5:28 
   54   52  1251 Eddie Komph           FAIR HAVEN ANCHOR BAY          16:58  5:28 
   55   53  1721 Connor Couch          PINCKNEY                       16:58  5:28 
   56   54  1451 Paul Ausum            HIGHLAND MILFORD               16:58  5:28 
   57   55  1766 Alex Waldvogel        PORTAGE CENTRAL                17:00  5:29 
   58   56  1829 Spencer Gerber        ROCKFORD                       17:01  5:29 
   59   57  1424 Jareb Duggan          HARTLAND                       17:03  5:30 
   60   58  1454 Shawn Shove           HIGHLAND MILFORD               17:03  5:30 
   61   59  1453 Ryan Hofsess          HIGHLAND MILFORD               17:03  5:30 
   62   60  1833 Drew Woznick          ROCKFORD                       17:03  5:30 
   63   61  1809 Dylan Oppenheiser     ROCHESTER ADAMS                17:04  5:30 
   64   62  1362 Eric Veldkamp         GRAND RAPIDS CHRISTIAN         17:04  5:30 
   65   63  1841 Joe Gerow             ROMEO                          17:08  5:31 
   66   64  1860 Mitchell Ellsworth    SAGINAW HERITAGE               17:09  5:32 
   67   65  1942 Austin Trethewey      STONEY CREEK                   17:09  5:32 
   68   66  1384 Ben Lafave            GRAND RAPIDS FOREST HILLS NORT 17:09  5:32 
   69   67  1506 Zachary Zingsheim     LANSING CATHOLIC               17:09  5:32 
   70   68  1755 Matt King             PORTAGE CENTRAL                17:10  5:32 
   71   69  1050 Tyler Durussel        AUBURN BAY CITY WESTERN        17:10  5:32 
   72       1458 Alex Holshoe          HOPKINS                        17:11  5:32 
   73   70  1164 Zack Dutcher          DEXTER                         17:11  5:32 
   74   71  1991 Jacob Nye             TEMPERANCE BEDFORD             17:11  5:32 
   75   72  1060 Spencer Kokaly        AUBURN BAY CITY WESTERN        17:11  5:32 
   76   73  1505 Austin Winter         LANSING CATHOLIC               17:11  5:32 
   77   74  1984 Adam Horace           TEMPERANCE BEDFORD             17:11  5:32 
   78   75  2037 Matt Moss             TRAVERSE CITY CENTRAL          17:12  5:33 
   79   76  1674 Daniel Tzou           MIDLAND H H DOW                17:12  5:33 
   80   77  1915 Kurtis Hall           SHEPHERD                       17:13  5:33 
   81   78  1664 Clayton Gould         MIDLAND H H DOW                17:13  5:33 
   82   79  2001 Troy Tidwell          TEMPERANCE BEDFORD             17:14  5:33 
   83   80  1994 Cory Schoendorf       TEMPERANCE BEDFORD             17:15  5:33 
   84   81  1989 James Nelson          TEMPERANCE BEDFORD             17:15  5:34 
   85   82  1359 Grant Ludema          GRAND RAPIDS CHRISTIAN         17:15  5:34 
   86   83  1813 Theo Thompson         ROCHESTER ADAMS                17:16  5:34 
   87   84  1425 Brendan Gavitt        HARTLAND                       17:18  5:34 
   88   85  1307 Adam Winebarger       GRAND HAVEN                    17:18  5:35 
   89   86  1306 Schalk Vanniekirk     GRAND HAVEN                    17:19  5:35 
   90   87  2042 Josh Rose             TRAVERSE CITY CENTRAL          17:20  5:35 
   91   88  1905 Grant Praschan        SALINE                         17:20  5:35 
   92   89  1879 Brandon Scharich      SAGINAW HERITAGE               17:21  5:35 
   93   90  1360 Andre Otte            GRAND RAPIDS CHRISTIAN         17:22  5:36 
   94   91  1571 Jacob Hansen          MASON                          17:22  5:36 
   95   92  1607 Aaron Bell            MATTAWAN                       17:22  5:36 
   96   93  1845 Doug O'Hair           ROMEO                          17:22  5:36 
   97   94  1063 Drew Meylan           AUBURN BAY CITY WESTERN        17:23  5:36 
   98   95  1067 Nathan Vorwerck       AUBURN BAY CITY WESTERN        17:23  5:36 
   99   96  1275 Ben Ruff              GOODRICH                       17:23  5:36 
  100   97  1847 Trevor Sharnas        ROMEO                          17:24  5:36 
  101   98  1057 Ryan Haag             AUBURN BAY CITY WESTERN        17:27  5:38 
  102   99  2049 Adam Waggoner         TRAVERSE CITY CENTRAL          17:30  5:39 
  103  100  1346 Josh Vaillancourt     GRAND LEDGE                    17:31  5:39 
  104  101  1900 Matthew Elms          SALINE                         17:32  5:39 
  105  102  1372 Nate Dwarshuis        GRAND RAPIDS FOREST HILLS NORT 17:33  5:39 
  106  103  1179 Zach Tidwell          DEXTER                         17:33  5:39 
  107  104  1624 Benny Richardson      MATTAWAN                       17:33  5:39 
  108  105  1303 Will Swain            GRAND HAVEN                    17:34  5:40 
  109  106  1827 Chris Coles           ROCKFORD                       17:34  5:40 
  110  107  1753 Ben Greaves           PORTAGE CENTRAL                17:34  5:40 
  111  108  1567 Joe Cecil             MASON                          17:37  5:41 
  112  109  1043 Jeffrey Amthor        AUBURN BAY CITY WESTERN        17:38  5:41 
  113  110  1846 Jason Saliga          ROMEO                          17:38  5:41 
  114  111  1356 Andrew Jo             GRAND RAPIDS CHRISTIAN         17:41  5:42 
  115  112  1832 Eric Parsell          ROCKFORD                       17:41  5:42 
  116  113  1807 Quinton Mack          ROCHESTER ADAMS                17:43  5:43 
  117  114  1867 David Jensen          SAGINAW HERITAGE               17:44  5:43 
  118  115  2122 Matt Degraeves        WATERFORD MOTT                 17:44  5:43 
  119  116  1898 David Dolsen          SALINE                         17:45  5:43 
  120  117  1762 John Rose             PORTAGE CENTRAL                17:45  5:43 
  121  118  1918 Adam Kyser            SHEPHERD                       17:47  5:44 
  122  119  1616 Joey Lautrup          MATTAWAN                       17:47  5:44 
  123  120  1676 Zach Wells            MIDLAND H H DOW                17:47  5:44 
  124  121  1806 Jon Kassab            ROCHESTER ADAMS                17:48  5:44 
  125  122  1367 Grant Cook            GRAND RAPIDS FOREST HILLS NORT 17:48  5:44 
  126  123  1273 Fiodor Kessler        GOODRICH                       17:49  5:44 
  127  124  1304 Dylan Tarr            GRAND HAVEN                    17:49  5:44 
  128  125  1495 Joe Marrah            LANSING CATHOLIC               17:49  5:45 
  129  126  1357 Seth Koetje           GRAND RAPIDS CHRISTIAN         17:50  5:45 
  130  127  1937 Dan Moore             STONEY CREEK                   17:50  5:45 
  131  128  1396 Jack Weykamp          GRAND RAPIDS FOREST HILLS NORT 17:50  5:45 
  132  129  1831 Devon Liu             ROCKFORD                       17:51  5:45 
  133  130  1808 Cameron McBride       ROCHESTER ADAMS                17:52  5:45 
  134  131  1054 David Gould           AUBURN BAY CITY WESTERN        17:53  5:46 
  135  132  1438 Sean Pengelly         HARTLAND                       17:54  5:46 
  136  133  2021 Joe Friedli           TRAVERSE CITY CENTRAL          17:56  5:47 
  137  134  1340 Austin Rios           GRAND LEDGE                    17:57  5:47 
  138  135  1439 Tige Pennala          HARTLAND                       18:00  5:48 
  139  136  1299 Justin Pippel         GRAND HAVEN                    18:01  5:48 
  140  137  1810 Alex Potoniec         ROCHESTER ADAMS                18:02  5:49 
  141  138  1503 Nate Warriner         LANSING CATHOLIC               18:04  5:49 
  142  139  1830 Mike Greko            ROCKFORD                       18:06  5:50 
  143  140  1771 Brandon Yonke         PORTAGE CENTRAL                18:07  5:50 
  144  141  1661 Philip Carney         MIDLAND H H DOW                18:08  5:51 
  145  142  1908 Sam Cole              SHEPHERD                       18:09  5:51 
  146  143  1737 Brad Petty            PINCKNEY                       18:09  5:51 
  147  144  1366 Joe Consolla          GRAND RAPIDS FOREST HILLS NORT 18:11  5:51 
  148  145  1426 Pat Gavitt            HARTLAND                       18:11  5:52 
  149  146  2123 Dane Falberg          WATERFORD MOTT                 18:13  5:52 
  150  147  2024 Max Johnson           TRAVERSE CITY CENTRAL          18:16  5:53 
  151  148  1668 Sam Owens             MIDLAND H H DOW                18:17  5:54 
  152  149  4129 Jeremy Hepner         TROY                           18:20  5:54 
  153  150  2017 Drew Dancer           TRAVERSE CITY CENTRAL          18:23  5:55 
  154  151  4131 Danny O'Donovan       TROY                           18:26  5:56 
  155  152  1940 Matt Rolain           STONEY CREEK                   18:26  5:56 
  156  153  1252 Jordan Miller         FAIR HAVEN ANCHOR BAY          18:27  5:57 
  157  154  4132 Chris Hoef            TROY                           18:31  5:58 
  158  155  1494 Spencer Lebel         LANSING CATHOLIC               18:32  5:58 
  159  156  1347 Dylan Wedley          GRAND LEDGE                    18:32  5:58 
  160  157  1575 Josh Horton           MASON                          18:33  5:59 
  161  158  1765 Zach Stoner           PORTAGE CENTRAL                18:34  5:59 
  162  159  4134 Alex Golinski         TROY                           18:35  5:59 
  163  160  1250 Scott Knybel          FAIR HAVEN ANCHOR BAY          18:35  5:59 
  164  161  1493 Mitchell Lebel        LANSING CATHOLIC               18:39  6:01 
  165  162  1617 Drew Lemons           MATTAWAN                       18:43  6:02 
  166  163  1842 Jonathon Haning       ROMEO                          18:45  6:02 
  167  164  2016 Evan Cover            TRAVERSE CITY CENTRAL          18:49  6:04 
  168  165  1330 Tyler Bannhard        GRAND LEDGE                    18:53  6:05 
  169  166  1331 Curtis Brownell       GRAND LEDGE                    18:57  6:06 
  170  167  1334 Bryan Jones           GRAND LEDGE                    18:58  6:07 
  171  168  1939 Mike Reckling         STONEY CREEK                   18:59  6:07 
  172  169  1621 Eric Orlando          MATTAWAN                       18:59  6:07 
  173  170  1843 Kyle Haning           ROMEO                          18:59  6:07 
  174  171  4133 Alex Miron            TROY                           19:02  6:08 
  175  172  1457 Shawn Welch           HIGHLAND MILFORD               19:11  6:11 
  176  173  1579 Chris Thorton         MASON                          19:12  6:11 
  177  174  1926 Marcus Sura           SHEPHERD                       19:18  6:13 
  178  175  1272 Nathan Hagerman       GOODRICH                       19:19  6:14 
  179  176  1844 Andrew Nelson         ROMEO                          19:24  6:15 
  180  177  4130 Adam Cowherd          TROY                           19:26  6:16 
  181  178  1274 Pat Patterson         GOODRICH                       19:26  6:16 
  182  179  1917 Josh Hutchinson       SHEPHERD                       20:09  6:30 
  183  180  2515 Zach Laymak           GOODRICH                       20:42  6:40 
  184  181  1277 Jack Zito             GOODRICH                       20:49  6:42 
  185  182  1271 Jordan Donnelly       GOODRICH                       20:58  6:45 
  186  183  1253 Shane Sopel           FAIR HAVEN ANCHOR BAY          21:38  6:58 
  187  184  1248 Sean Chilcott         FAIR HAVEN ANCHOR BAY          21:58  7:05 
  188  185  1249 Brandon Edwards       FAIR HAVEN ANCHOR BAY          22:04  7:07